Time;durP1;ratioP1;P1;durP2;ratioP2;P2;SDS_P1;SDS_P2;PMS_P1;PMS_P2;Temp;Humidity;BMP_temperature;BMP_pressure;BME280_temperature;BME280_humidity;BME280_pressure;Samples;Min_cycle;Max_cycle;Signal;HPM_P1;HPM_P2
2022/01/31 00:02:18;;;;;;;9.50;1.85;;;;;;;4.59;82.54;101537.31;5012184;28;126815;-33
2022/01/31 00:04:44;;;;;;;0.75;0.75;;;;;;;4.61;83.16;101540.84;5012333;28;96751;-34
2022/01/31 00:07:10;;;;;;;10.38;1.77;;;;;;;4.57;82.20;101519.50;5011931;28;121648;-33
2022/01/31 00:09:36;;;;;;;1.55;1.10;;;;;;;4.53;82.93;101504.38;5011957;28;99365;-33
2022/01/31 00:12:08;;;;;;;1.08;0.60;;;;;;;4.54;83.42;101496.31;5011257;28;100640;-33
2022/01/31 00:14:39;;;;;;;1.45;0.95;;;;;;;4.51;84.84;101482.97;5011317;28;97121;-33
2022/01/31 00:17:06;;;;;;;8.75;1.65;;;;;;;4.55;82.92;101473.03;5011332;28;96602;-33
2022/01/31 00:19:32;;;;;;;2.67;1.17;;;;;;;4.52;84.78;101468.63;5010845;28;100788;-33
2022/01/31 00:21:58;;;;;;;5.47;1.77;;;;;;;4.51;84.35;101463.34;5011226;28;101206;-33
2022/01/31 00:24:24;;;;;;;2.10;1.00;;;;;;;4.54;83.85;101463.25;5011103;28;96558;-33
2022/01/31 00:26:49;;;;;;;11.90;1.70;;;;;;;4.43;83.92;101444.72;5012863;28;96820;-33
2022/01/31 00:29:15;;;;;;;3.38;0.82;;;;;;;4.42;84.59;101433.13;5012374;28;99341;-33
2022/01/31 00:31:40;;;;;;;1.48;1.02;;;;;;;4.50;85.29;101440.97;5012367;28;97706;-33
2022/01/31 00:34:05;;;;;;;7.05;1.80;;;;;;;4.44;85.07;101423.25;5012009;28;96609;-33
2022/01/31 00:36:30;;;;;;;5.20;1.67;;;;;;;4.50;85.08;101418.63;5011778;28;119119;-33
2022/01/31 00:38:56;;;;;;;2.97;1.00;;;;;;;4.49;85.13;101407.03;5012465;28;97293;-33
2022/01/31 00:41:21;;;;;;;4.65;2.17;;;;;;;4.50;85.35;101399.84;5012302;28;97332;-33
2022/01/31 00:43:57;;;;;;;5.40;1.35;;;;;;;4.44;85.47;101382.13;5011397;28;105460;-33
2022/01/31 00:46:28;;;;;;;3.80;1.40;;;;;;;4.39;85.52;101366.19;5012203;28;96645;-33
2022/01/31 00:48:53;;;;;;;4.43;1.05;;;;;;;4.42;85.39;101362.53;5012124;28;99303;-33
2022/01/31 00:51:19;;;;;;;2.72;1.23;;;;;;;4.47;85.35;101360.59;5012429;28;99068;-33
2022/01/31 00:53:44;;;;;;;8.52;1.38;;;;;;;4.47;85.72;101349.84;5011334;28;121568;-33
2022/01/31 00:56:09;;;;;;;1.42;0.60;;;;;;;4.46;86.50;101338.25;5012185;28;96787;-33
2022/01/31 00:58:35;;;;;;;2.30;0.55;;;;;;;4.45;86.46;101324.88;5011141;28;99889;-33
2022/01/31 01:01:00;;;;;;;2.65;1.38;;;;;;;4.50;85.75;101335.47;5012156;28;97787;-33
2022/01/31 01:03:25;;;;;;;2.10;0.65;;;;;;;4.49;86.94;101310.47;5011634;28;109514;-33
2022/01/31 01:05:50;;;;;;;2.35;1.40;;;;;;;4.42;87.03;101279.38;5012011;28;96888;-33
2022/01/31 01:08:16;;;;;;;0.60;0.50;;;;;;;4.42;87.59;101284.75;5011506;28;99345;-33
2022/01/31 01:10:41;;;;;;;4.72;1.23;;;;;;;4.45;87.01;101287.31;5011955;28;97738;-33
2022/01/31 01:13:07;;;;;;;10.48;1.85;;;;;;;4.42;86.31;101272.22;5011921;28;96473;-33
2022/01/31 01:15:32;;;;;;;0.95;0.88;;;;;;;4.44;87.22;101262.31;5012468;28;96820;-33
2022/01/31 01:17:58;;;;;;;6.00;1.15;;;;;;;4.50;86.73;101253.19;5011171;28;99795;-33
2022/01/31 01:20:24;;;;;;;9.63;0.82;;;;;;;4.45;87.65;101247.97;5011522;28;99339;-33
2022/01/31 01:22:49;;;;;;;1.27;0.85;;;;;;;4.52;88.63;101250.47;5011604;28;96475;-33
2022/01/31 01:25:16;;;;;;;1.13;0.55;;;;;;;4.55;87.33;101228.91;5011769;28;96796;-33
2022/01/31 01:27:43;;;;;;;0.70;0.60;;;;;;;4.60;88.38;101238.59;5010148;28;101234;-33
2022/01/31 01:30:10;;;;;;;3.65;1.38;;;;;;;4.65;87.62;101230.41;5010228;28;100928;-33
2022/01/31 01:32:46;;;;;;;2.75;0.93;;;;;;;4.66;87.69;101221.44;5010160;28;96697;-33
2022/01/31 01:35:12;;;;;;;2.00;0.80;;;;;;;4.65;87.80;101188.38;5010319;28;96749;-33
2022/01/31 01:37:37;;;;;;;1.45;0.90;;;;;;;4.78;87.71;101204.94;5011333;28;99364;-33
2022/01/31 01:40:04;;;;;;;0.57;0.50;;;;;;;4.76;88.14;101201.41;5011671;28;99230;-33
2022/01/31 01:42:29;;;;;;;2.08;0.60;;;;;;;4.90;88.24;101191.13;5010161;28;96797;-33
2022/01/31 01:44:54;;;;;;;2.08;0.90;;;;;;;4.94;87.90;101185.66;5011386;28;96822;-33
2022/01/31 01:47:23;;;;;;;1.55;0.95;;;;;;;5.03;87.97;101183.56;5010840;28;103318;-33
2022/01/31 01:49:50;;;;;;;2.67;1.23;;;;;;;5.03;87.14;101171.91;5010074;28;99832;-33
2022/01/31 01:52:16;;;;;;;0.43;0.35;;;;;;;5.10;89.26;101170.78;5010087;28;96660;-33
2022/01/31 01:54:42;;;;;;;1.48;0.30;;;;;;;5.22;88.55;101196.34;5010072;28;96779;-33
2022/01/31 01:57:08;;;;;;;1.45;0.73;;;;;;;5.29;88.68;101173.72;5013518;28;97814;-33
2022/01/31 01:59:35;;;;;;;0.47;0.47;;;;;;;5.36;89.08;101163.66;5014274;28;97941;-32
2022/01/31 02:02:05;;;;;;;1.17;0.73;;;;;;;5.45;88.97;101153.47;5013511;28;96757;-33
2022/01/31 02:04:31;;;;;;;2.13;0.52;;;;;;;5.53;90.01;101139.78;5013181;28;96913;-33
2022/01/31 02:06:56;;;;;;;4.05;1.27;;;;;;;5.58;89.24;101137.78;5012928;28;100946;-33
2022/01/31 02:09:23;;;;;;;2.97;1.33;;;;;;;5.58;89.15;101129.72;5014496;28;99566;-33
2022/01/31 02:11:49;;;;;;;0.30;0.30;;;;;;;5.68;88.70;101144.59;5013938;28;96561;-33
2022/01/31 02:14:14;;;;;;;1.38;0.65;;;;;;;5.73;88.60;101145.28;5012951;28;97267;-33
2022/01/31 02:16:40;;;;;;;9.73;0.70;;;;;;;5.76;88.97;101136.22;5014360;28;99356;-33
2022/01/31 02:19:07;;;;;;;9.10;1.30;;;;;;;5.74;88.41;101109.44;5014538;28;97794;-33
2022/01/31 02:21:32;;;;;;;4.55;0.85;;;;;;;5.77;88.08;101111.13;5013136;28;96654;-33
2022/01/31 02:23:58;;;;;;;1.05;0.70;;;;;;;5.82;87.84;101097.50;5014360;28;102863;-33
2022/01/31 02:26:23;;;;;;;5.63;0.82;;;;;;;5.86;87.76;101115.25;5014498;28;97955;-33
2022/01/31 02:28:48;;;;;;;4.10;1.15;;;;;;;5.91;87.42;101124.91;5014758;28;97923;-33
2022/01/31 02:31:14;;;;;;;2.75;1.00;;;;;;;5.87;87.57;101114.34;5014647;28;96685;-33
2022/01/31 02:33:40;;;;;;;1.02;0.45;;;;;;;5.87;87.21;101128.66;5014833;28;96743;-33
2022/01/31 02:36:05;;;;;;;1.83;0.80;;;;;;;5.93;87.31;101133.81;5012310;28;101018;-33
2022/01/31 02:38:31;;;;;;;1.73;0.57;;;;;;;5.92;86.93;101112.34;5013841;28;99231;-33
2022/01/31 02:40:57;;;;;;;3.45;0.68;;;;;;;5.93;86.71;101096.16;5012652;28;98007;-33
2022/01/31 02:43:25;;;;;;;3.40;0.75;;;;;;;5.93;86.33;101090.78;5013863;28;96808;-33
2022/01/31 02:45:51;;;;;;;2.85;1.35;;;;;;;5.95;86.12;101088.06;5014150;28;97869;-33
2022/01/31 02:48:19;;;;;;;1.85;0.50;;;;;;;6.01;86.14;101095.03;5012551;28;100882;-33
2022/01/31 02:50:45;;;;;;;2.17;0.73;;;;;;;6.00;86.28;101079.81;5012673;28;96589;-33
2022/01/31 02:55:37;;;;;;;0.17;0.13;;;;;;;5.99;85.65;101088.84;5013893;28;97988;-33
2022/01/31 02:58:03;;;;;;;6.38;0.57;;;;;;;5.95;85.45;101083.56;5011970;28;100962;-33
2022/01/31 03:00:28;;;;;;;3.28;0.82;;;;;;;6.00;85.30;101090.56;5013651;28;96471;-33
2022/01/31 03:02:53;;;;;;;5.82;0.85;;;;;;;5.94;84.97;101079.13;5013813;28;96856;-33
2022/01/31 03:05:18;;;;;;;2.35;0.57;;;;;;;6.00;84.44;101090.56;5012101;28;128676;-33
2022/01/31 03:07:44;;;;;;;6.22;0.40;;;;;;;6.00;83.86;101086.06;5012063;28;124342;-33
2022/01/31 03:10:09;;;;;;;3.72;0.55;;;;;;;5.99;84.00;101080.75;5012647;28;120515;-33
2022/01/31 03:12:34;;;;;;;0.80;0.20;;;;;;;6.01;83.89;101086.97;5012817;28;119852;-33
2022/01/31 03:15:00;;;;;;;0.30;0.30;;;;;;;5.93;83.84;101063.91;5013480;28;99432;-33
2022/01/31 03:17:25;;;;;;;0.52;0.15;;;;;;;5.99;83.60;101072.69;5013359;28;116421;-33
2022/01/31 03:19:53;;;;;;;0.55;0.38;;;;;;;5.94;83.79;101076.44;5013252;28;111103;-33
2022/01/31 03:22:20;;;;;;;0.45;0.35;;;;;;;5.91;83.26;101067.56;5013573;28;96828;-33
2022/01/31 03:24:46;;;;;;;0.35;0.28;;;;;;;5.95;83.53;101080.88;5012730;28;99467;-33
2022/01/31 03:27:11;;;;;;;1.90;0.47;;;;;;;5.93;83.41;101076.44;5013204;28;97626;-33
2022/01/31 03:29:36;;;;;;;5.32;1.02;;;;;;;5.91;83.32;101059.50;5013672;28;96459;-33
2022/01/31 03:32:02;;;;;;;3.65;0.57;;;;;;;5.94;83.14;101070.19;5013493;28;96814;-33
2022/01/31 03:34:28;;;;;;;1.35;0.70;;;;;;;5.88;82.53;101051.56;5011785;28;102296;-33
2022/01/31 03:36:53;;;;;;;8.88;0.77;;;;;;;5.93;82.25;101068.38;5013341;28;97264;-33
2022/01/31 03:39:19;;;;;;;0.17;0.15;;;;;;;5.92;82.22;101051.38;5012529;28;118768;-35
2022/01/31 03:41:44;;;;;;;9.20;1.30;;;;;;;5.91;82.12;101052.34;5013707;28;96797;-33
2022/01/31 03:44:09;;;;;;;0.35;0.20;;;;;;;5.87;81.92;101047.13;5012466;28;121868;-33
2022/01/31 03:46:35;;;;;;;0.45;0.43;;;;;;;5.91;81.56;101046.97;5012779;28;115390;-33
2022/01/31 03:49:01;;;;;;;0.35;0.17;;;;;;;5.85;81.44;101052.56;5012622;28;96572;-33
2022/01/31 03:51:26;;;;;;;0.55;0.10;;;;;;;5.82;80.82;101027.63;5012959;28;96529;-33
2022/01/31 03:53:51;;;;;;;4.07;0.70;;;;;;;5.89;80.89;101047.94;5012127;28;122575;-33
2022/01/31 03:56:17;;;;;;;1.17;0.22;;;;;;;5.86;80.18;101059.66;5011992;28;123653;-33
2022/01/31 03:58:42;;;;;;;2.17;0.52;;;;;;;5.82;80.66;101036.56;5012073;28;112677;-33
2022/01/31 04:01:07;;;;;;;0.60;0.40;;;;;;;5.80;79.61;101019.59;5011975;28;121507;-33
2022/01/31 04:03:34;;;;;;;0.45;0.20;;;;;;;5.86;80.23;101022.03;5011813;28;126824;-33
2022/01/31 04:05:59;;;;;;;1.38;0.63;;;;;;;5.88;79.69;101033.59;5012807;28;97835;-33
2022/01/31 04:08:25;;;;;;;1.45;0.22;;;;;;;5.89;79.28;101027.31;5012627;28;96659;-33
2022/01/31 04:10:50;;;;;;;0.17;0.13;;;;;;;5.91;79.19;101017.38;5012476;28;99409;-33
2022/01/31 04:13:18;;;;;;;3.10;0.40;;;;;;;5.95;79.60;101019.03;5011848;28;109522;-33
2022/01/31 04:15:43;;;;;;;0.55;0.20;;;;;;;5.97;79.04;101015.41;5012450;28;99561;-33
2022/01/31 04:18:09;;;;;;;7.70;0.52;;;;;;;5.91;78.89;101014.69;5012463;28;96812;-33
2022/01/31 04:20:34;;;;;;;0.00;0.00;;;;;;;5.91;78.52;101017.38;5012101;28;96765;-33
2022/01/31 04:23:10;;;;;;;3.75;0.40;;;;;;;5.92;78.59;101010.19;5012387;28;99155;-33
2022/01/31 04:28:17;;;;;;;0.08;0.08;;;;;;;6.00;77.81;101023.34;5010897;28;96548;-33
2022/01/31 04:30:51;;;;;;;0.13;0.08;;;;;;;5.94;77.45;100993.09;5013147;28;96749;-33
2022/01/31 04:33:16;;;;;;;8.93;0.20;;;;;;;5.96;77.40;101009.16;5010926;28;100803;-33
2022/01/31 04:35:42;;;;;;;8.07;1.48;;;;;;;6.03;77.25;101015.16;5012059;28;99288;-33
2022/01/31 04:38:07;;;;;;;0.95;0.22;;;;;;;6.04;76.55;100992.72;5011862;28;96453;-33
2022/01/31 04:40:32;;;;;;;2.75;0.55;;;;;;;6.02;76.99;101000.84;5011388;28;120473;-33
2022/01/31 04:42:58;;;;;;;5.13;0.85;;;;;;;6.01;76.53;100991.03;5011498;28;117310;-33
2022/01/31 04:45:23;;;;;;;0.98;0.47;;;;;;;5.98;75.99;100991.13;5012349;28;97787;-33
2022/01/31 04:47:49;;;;;;;4.10;0.30;;;;;;;6.07;76.19;101008.72;5012190;28;96545;-33
2022/01/31 04:50:14;;;;;;;1.00;0.45;;;;;;;6.09;75.86;100996.97;5011522;28;121675;-33
2022/01/31 04:52:42;;;;;;;2.78;0.40;;;;;;;6.04;76.62;100985.53;5012094;28;97840;-33
2022/01/31 04:55:08;;;;;;;3.38;0.25;;;;;;;6.04;76.40;100990.03;5010914;28;100864;-33
2022/01/31 04:57:34;;;;;;;6.90;0.90;;;;;;;6.11;77.30;101007.69;5010614;28;96695;-33
2022/01/31 04:59:59;;;;;;;4.75;0.55;;;;;;;6.09;76.68;100998.78;5012188;28;96678;-33
2022/01/31 05:02:25;;;;;;;2.92;0.40;;;;;;;6.03;78.11;100991.84;5011537;28;97879;-33
2022/01/31 05:04:50;;;;;;;0.93;0.35;;;;;;;6.01;77.96;100984.78;5011157;28;97757;-33
2022/01/31 05:07:16;;;;;;;1.67;0.70;;;;;;;5.97;78.22;100993.91;5012005;28;96575;-33
2022/01/31 05:09:42;;;;;;;2.88;0.68;;;;;;;5.99;78.50;100992.03;5011769;28;97895;-33
2022/01/31 05:12:08;;;;;;;1.95;0.43;;;;;;;5.96;78.61;101003.78;5011789;28;99630;-33
2022/01/31 05:14:34;;;;;;;1.70;0.40;;;;;;;5.94;79.05;100995.78;5010226;28;100664;-33
2022/01/31 05:16:59;;;;;;;0.70;0.43;;;;;;;5.93;79.29;101009.25;5011436;28;114295;-33
2022/01/31 05:19:25;;;;;;;0.13;0.10;;;;;;;5.92;79.37;101018.25;5012163;28;96732;-33
2022/01/31 05:21:50;;;;;;;4.25;0.85;;;;;;;5.79;78.95;101001.72;5011737;28;97881;-33
2022/01/31 05:24:15;;;;;;;4.05;0.75;;;;;;;5.81;79.00;101004.34;5011905;28;97383;-33
2022/01/31 05:26:41;;;;;;;0.38;0.20;;;;;;;5.82;78.79;100993.56;5011337;28;96470;-33
2022/01/31 05:29:06;;;;;;;7.60;0.70;;;;;;;5.90;78.45;101007.56;5011836;28;96804;-33
2022/01/31 05:31:31;;;;;;;1.13;0.45;;;;;;;5.89;77.86;101008.50;5013501;28;127523;-33
2022/01/31 05:33:57;;;;;;;1.10;0.20;;;;;;;5.88;78.22;101025.53;5014277;28;123317;-33
2022/01/31 05:36:23;;;;;;;2.13;0.43;;;;;;;5.89;77.56;101021.06;5015348;28;96525;-33
2022/01/31 05:38:48;;;;;;;1.88;0.38;;;;;;;5.92;77.86;101010.19;5013923;28;96762;-33
2022/01/31 05:41:18;;;;;;;10.45;0.50;;;;;;;5.87;76.46;101005.00;5014854;28;98963;-33
2022/01/31 05:43:45;;;;;;;0.10;0.08;;;;;;;5.83;76.34;100995.28;5013919;28;102754;-33
2022/01/31 05:46:10;;;;;;;0.70;0.40;;;;;;;5.86;77.11;100992.47;5013801;28;96650;-33
2022/01/31 05:48:36;;;;;;;2.17;0.52;;;;;;;5.83;75.97;100980.97;5014182;28;116205;-33
2022/01/31 05:51:02;;;;;;;4.50;0.52;;;;;;;5.87;77.10;101002.31;5014245;28;109237;-33
2022/01/31 05:53:30;;;;;;;9.38;0.52;;;;;;;5.88;76.76;101014.78;5014780;28;99160;-33
2022/01/31 05:55:58;;;;;;;0.63;0.15;;;;;;;5.87;76.19;100988.00;5013560;28;96541;-33
2022/01/31 05:58:24;;;;;;;1.88;0.88;;;;;;;5.85;76.36;100993.41;5014471;28;96712;-33
2022/01/31 06:00:49;;;;;;;2.90;0.52;;;;;;;5.81;76.82;100986.41;5013316;28;100722;-33
2022/01/31 06:03:15;;;;;;;1.60;0.30;;;;;;;5.86;77.01;100999.66;5013375;28;99909;-33
2022/01/31 06:05:40;;;;;;;1.58;0.45;;;;;;;5.83;76.98;101018.63;5014258;28;96847;-33
2022/01/31 06:08:06;;;;;;;5.35;0.80;;;;;;;5.82;76.77;100990.00;5015192;28;96793;-33
2022/01/31 06:10:33;;;;;;;1.10;0.47;;;;;;;5.82;77.32;101003.44;5014438;28;99526;-33
2022/01/31 06:12:59;;;;;;;3.78;0.75;;;;;;;5.73;77.53;100981.34;5015065;28;96543;-33
2022/01/31 06:15:24;;;;;;;1.63;0.65;;;;;;;5.74;77.81;100979.53;5013716;28;119166;-33
2022/01/31 06:17:50;;;;;;;6.85;0.52;;;;;;;5.79;77.46;100982.03;5014274;28;97036;-33
2022/01/31 06:20:15;;;;;;;1.27;0.40;;;;;;;5.79;77.81;100984.72;5014263;28;99380;-33
2022/01/31 06:22:50;;;;;;;10.43;0.90;;;;;;;5.79;77.57;100988.28;5014416;28;97327;-33
2022/01/31 06:25:18;;;;;;;7.15;0.95;;;;;;;5.75;77.43;100975.91;5013095;28;96569;-33
2022/01/31 06:27:44;;;;;;;2.30;0.38;;;;;;;5.78;77.71;100994.59;5012973;28;96919;-33
2022/01/31 06:30:09;;;;;;;6.15;0.22;;;;;;;5.77;76.98;100991.97;5014175;28;99327;-33
2022/01/31 06:32:35;;;;;;;1.20;0.35;;;;;;;5.71;77.02;100969.78;5014398;28;99191;-33
2022/01/31 06:35:00;;;;;;;2.85;0.57;;;;;;;5.75;77.23;101002.78;5014775;28;96547;-33
2022/01/31 06:37:26;;;;;;;4.75;0.70;;;;;;;5.80;76.48;100990.03;5014223;28;96815;-33
2022/01/31 06:39:51;;;;;;;1.23;0.50;;;;;;;5.76;76.64;100991.09;5013760;28;97902;-33
2022/01/31 06:42:16;;;;;;;3.05;0.52;;;;;;;5.77;76.15;100982.09;5013562;28;97584;-33
2022/01/31 06:44:42;;;;;;;2.85;0.80;;;;;;;5.80;76.11;100997.25;5013425;28;118717;-33
2022/01/31 06:47:07;;;;;;;1.67;0.60;;;;;;;5.83;76.16;100999.78;5014176;28;96736;-33
2022/01/31 06:49:32;;;;;;;2.53;0.82;;;;;;;5.83;74.12;100989.03;5014133;28;97981;-33
2022/01/31 06:51:57;;;;;;;1.13;0.47;;;;;;;5.82;74.94;100998.94;5013052;28;127023;-33
2022/01/31 06:54:23;;;;;;;3.20;1.75;;;;;;;5.82;75.76;100985.50;5013321;28;115923;-33
2022/01/31 06:56:48;;;;;;;0.60;0.30;;;;;;;5.91;75.34;101020.06;5014450;28;96919;-33
2022/01/31 06:59:13;;;;;;;3.03;0.88;;;;;;;5.82;75.80;101007.00;5013660;28;97858;-33
2022/01/31 07:01:39;;;;;;;2.33;0.30;;;;;;;5.82;75.70;101015.06;5013455;28;99150;-33
2022/01/31 07:04:04;;;;;;;3.17;0.40;;;;;;;5.81;76.09;101015.97;5012498;28;115106;-32
2022/01/31 07:06:29;;;;;;;2.95;0.47;;;;;;;5.78;76.60;101021.47;5013576;28;96697;-33
2022/01/31 07:08:55;;;;;;;2.83;0.60;;;;;;;5.76;76.43;101028.72;5013711;28;103989;-33
2022/01/31 07:11:26;;;;;;;3.83;0.90;;;;;;;5.84;76.74;101037.38;5013384;28;99427;-33
2022/01/31 07:14:24;;;;;;;4.07;0.47;;;;;;;5.79;76.62;101027.72;5012511;28;96867;-33
2022/01/31 07:16:49;;;;;;;4.20;0.52;;;;;;;5.77;76.42;101038.56;5013883;28;96545;-33
2022/01/31 07:19:14;;;;;;;7.22;1.38;;;;;;;5.78;76.85;101036.72;5012518;28;126698;-33
2022/01/31 07:21:47;;;;;;;5.43;1.30;;;;;;;5.76;76.98;101042.16;5012887;28;126184;-33
2022/01/31 07:24:20;;;;;;;5.97;0.60;;;;;;;5.70;76.95;101037.03;5013684;28;96678;-33
2022/01/31 07:26:46;;;;;;;0.47;0.43;;;;;;;5.74;77.35;101041.34;5012222;28;96742;-33
2022/01/31 07:29:12;;;;;;;2.78;0.38;;;;;;;5.67;77.33;101027.28;5011531;28;100979;-33
2022/01/31 07:31:38;;;;;;;8.27;0.40;;;;;;;5.75;77.30;101026.97;5013381;28;97838;-33
2022/01/31 07:34:04;;;;;;;3.30;0.63;;;;;;;5.70;76.98;101013.72;5012171;28;96568;-33
2022/01/31 07:36:30;;;;;;;1.25;0.55;;;;;;;5.62;77.01;101012.25;5013417;28;96711;-33
2022/01/31 07:38:55;;;;;;;2.08;0.90;;;;;;;5.72;77.14;101027.97;5013131;28;97902;-33
2022/01/31 07:41:20;;;;;;;4.43;0.60;;;;;;;5.71;76.77;101028.03;5012412;28;126746;-33
2022/01/31 07:43:46;;;;;;;1.52;1.08;;;;;;;5.77;77.04;101027.81;5013438;28;96548;-33
2022/01/31 07:46:12;;;;;;;0.13;0.13;;;;;;;5.78;77.10;101067.16;5013735;28;96808;-32
2022/01/31 07:48:38;;;;;;;3.92;0.60;;;;;;;5.75;77.01;101051.16;5011740;28;100838;-33
2022/01/31 07:51:04;;;;;;;0.20;0.20;;;;;;;5.74;76.92;101041.34;5012818;28;99515;-33
2022/01/31 07:53:29;;;;;;;1.73;0.25;;;;;;;5.84;76.40;101047.22;5010216;28;96797;-33
2022/01/31 07:55:55;;;;;;;3.08;0.98;;;;;;;5.85;76.77;101062.44;5012445;28;112647;-33
2022/01/31 07:58:20;;;;;;;0.40;0.30;;;;;;;5.87;76.54;101068.63;5011810;28;123189;-33
2022/01/31 08:00:45;;;;;;;1.77;0.65;;;;;;;5.85;76.50;101068.69;5012688;28;107590;-33
2022/01/31 08:03:11;;;;;;;0.82;0.52;;;;;;;5.84;76.23;101079.47;5013142;28;96540;-33
2022/01/31 08:05:37;;;;;;;11.13;1.70;;;;;;;5.91;75.94;101081.00;5012860;28;96742;-33
2022/01/31 08:08:02;;;;;;;1.40;0.60;;;;;;;5.87;75.48;101066.81;5012686;28;97839;-33
2022/01/31 08:10:27;;;;;;;9.65;0.77;;;;;;;5.95;75.66;101070.09;5012818;28;99201;-33
2022/01/31 08:12:55;;;;;;;6.22;0.35;;;;;;;6.00;75.34;101063.69;5013034;28;96664;-33
2022/01/31 08:15:25;;;;;;;3.80;0.60;;;;;;;5.93;75.47;101041.50;5012933;28;96863;-33
2022/01/31 08:17:51;;;;;;;2.10;0.50;;;;;;;6.02;75.69;101069.88;5010627;28;101388;-33
2022/01/31 08:20:16;;;;;;;10.63;1.27;;;;;;;6.00;75.46;101077.13;5012259;28;111163;-33
2022/01/31 08:22:42;;;;;;;0.98;0.50;;;;;;;6.00;76.46;101096.81;5012854;28;96406;-33
2022/01/31 08:25:13;;;;;;;2.05;0.35;;;;;;;5.97;77.13;101105.00;5012784;28;96712;-33
2022/01/31 08:27:40;;;;;;;3.55;0.28;;;;;;;5.87;78.56;101117.03;5011016;28;100922;-33
2022/01/31 08:30:11;;;;;;;0.95;0.45;;;;;;;5.81;79.36;101123.50;5010965;28;100833;-33
2022/01/31 08:32:44;;;;;;;0.00;0.00;;;;;;;5.72;79.71;101129.19;5011298;28;96699;-33
2022/01/31 08:38:01;;;;;;;6.22;1.13;;;;;;;5.68;79.25;101106.94;5002357;28;97196;-33
2022/01/31 08:40:27;;;;;;;5.22;1.02;;;;;;;5.71;78.98;101127.47;5012281;28;102566;-33
2022/01/31 08:42:52;;;;;;;3.80;0.82;;;;;;;5.73;78.63;101125.59;5011727;28;96477;-33
2022/01/31 08:45:17;;;;;;;8.65;0.60;;;;;;;5.72;78.31;101115.75;5011527;28;118588;-33
2022/01/31 08:47:43;;;;;;;2.85;0.80;;;;;;;5.74;78.28;101112.13;5011981;28;99446;-33
2022/01/31 08:50:10;;;;;;;9.40;0.75;;;;;;;5.74;77.86;101130.94;5010808;28;100944;-33
2022/01/31 08:52:36;;;;;;;4.15;1.05;;;;;;;5.75;77.60;101131.81;5010842;28;96680;-33
2022/01/31 08:55:01;;;;;;;3.90;1.35;;;;;;;5.82;77.25;101133.31;5012100;28;96728;-33
2022/01/31 08:57:27;;;;;;;2.47;0.40;;;;;;;5.81;77.72;101136.06;5012171;28;97343;-33
2022/01/31 08:59:52;;;;;;;4.88;0.85;;;;;;;5.84;77.63;101142.22;5011897;28;99156;-33
2022/01/31 09:02:25;;;;;;;4.00;0.60;;;;;;;5.80;77.37;101156.69;5011870;28;96429;-33
2022/01/31 09:04:52;;;;;;;0.73;0.43;;;;;;;5.81;77.33;101117.25;5011042;28;96696;-33
2022/01/31 09:07:19;;;;;;;6.75;0.98;;;;;;;5.84;77.17;101135.94;5011165;28;99470;-33
2022/01/31 09:09:53;;;;;;;1.38;0.65;;;;;;;5.91;76.97;101129.41;5010471;28;101192;-33
2022/01/31 09:12:18;;;;;;;7.85;1.50;;;;;;;5.88;77.01;101140.28;5012127;28;96441;-33
2022/01/31 09:14:44;;;;;;;11.68;0.88;;;;;;;5.82;77.34;101130.63;5010583;28;96786;-33
2022/01/31 09:17:10;;;;;;;12.00;1.42;;;;;;;5.86;77.58;101128.69;5010294;28;101060;-33
2022/01/31 09:19:35;;;;;;;3.13;1.25;;;;;;;5.90;77.21;101141.97;5011697;28;98010;-33
2022/01/31 09:22:01;;;;;;;6.82;0.68;;;;;;;5.89;76.67;101129.47;5011920;28;96549;-33
2022/01/31 09:24:27;;;;;;;7.40;2.20;;;;;;;5.98;76.25;101159.66;5012156;28;96736;-33
2022/01/31 09:26:53;;;;;;;15.82;1.38;;;;;;;6.02;76.45;101164.00;5010191;28;100710;-33
2022/01/31 09:29:18;;;;;;;2.08;0.90;;;;;;;5.94;74.95;101157.09;5011470;28;99218;-33
2022/01/31 09:31:44;;;;;;;5.07;0.93;;;;;;;5.99;74.35;101182.94;5011220;28;96423;-33
2022/01/31 09:34:09;;;;;;;5.68;1.33;;;;;;;6.01;73.45;101163.13;5011742;28;96721;-33
2022/01/31 09:36:34;;;;;;;7.28;1.13;;;;;;;6.05;73.55;101180.00;5011208;28;110433;-33
2022/01/31 09:39:00;;;;;;;7.07;1.55;;;;;;;6.05;73.35;101182.69;5011545;28;97810;-33
2022/01/31 09:41:28;;;;;;;15.23;1.33;;;;;;;5.98;72.58;101163.22;5011486;28;96681;-33
2022/01/31 09:44:14;;;;;;;6.05;1.02;;;;;;;6.00;71.71;101177.47;5010102;28;96871;-33
2022/01/31 09:49:08;;;;;;;2.20;0.52;;;;;;;6.09;71.30;101192.41;5011873;28;97804;-33
2022/01/31 09:51:34;;;;;;;6.32;1.77;;;;;;;6.08;71.29;101186.16;5010601;28;122182;-33
2022/01/31 09:54:03;;;;;;;2.00;0.80;;;;;;;6.16;71.78;101199.31;5011331;28;98367;-33
2022/01/31 09:56:33;;;;;;;2.92;0.98;;;;;;;6.03;71.08;101184.56;5009281;28;100742;-33
2022/01/31 09:59:00;;;;;;;11.60;2.13;;;;;;;6.11;70.47;101217.44;5009626;28;100820;-33
2022/01/31 10:01:29;;;;;;;2.70;1.08;;;;;;;6.16;69.80;101193.94;5010147;28;96606;-33
2022/01/31 10:04:14;;;;;;;6.57;0.85;;;;;;;6.19;69.63;101214.44;5011391;28;96773;-33
2022/01/31 10:06:42;;;;;;;6.28;1.75;;;;;;;6.16;70.56;101213.63;5011124;28;97965;-33
2022/01/31 10:09:13;;;;;;;4.35;1.23;;;;;;;6.16;71.29;101210.94;5011075;28;98033;-33
2022/01/31 10:11:50;;;;;;;7.37;1.40;;;;;;;6.16;71.41;101220.81;5010039;28;96653;-33
2022/01/31 10:17:32;;;;;;;1.05;0.15;;;;;;;6.03;73.06;101257.16;5012539;28;97100;-34
2022/01/31 10:20:00;;;;;;;1.45;0.60;;;;;;;6.03;73.35;101259.84;5013173;28;100775;-33
2022/01/31 10:22:28;;;;;;;5.03;1.05;;;;;;;6.06;73.42;101274.06;5012726;28;97335;-33
2022/01/31 10:24:57;;;;;;;1.08;0.40;;;;;;;6.09;73.08;101290.09;5013078;28;96766;-33
2022/01/31 10:27:29;;;;;;;1.85;0.50;;;;;;;6.09;73.31;101263.19;5012944;28;100912;-33
2022/01/31 10:30:07;;;;;;;2.72;0.77;;;;;;;6.18;73.38;101291.59;5012750;28;98890;-33
2022/01/31 10:32:36;;;;;;;13.75;2.10;;;;;;;6.13;73.10;101310.56;5013120;28;97027;-33
2022/01/31 10:35:05;;;;;;;3.38;0.75;;;;;;;6.15;73.17;101289.00;5012935;28;96809;-33
2022/01/31 10:37:32;;;;;;;10.10;1.35;;;;;;;6.13;71.93;101297.13;5012818;28;100763;-33
2022/01/31 10:56:24;;;;;;;1.30;0.73;;;;;;;6.06;72.28;101297.41;5013164;28;96499;-33
2022/01/31 10:58:53;;;;;;;2.80;0.93;;;;;;;6.08;72.61;101280.28;5012152;28;100960;-33
2022/01/31 11:01:19;;;;;;;2.95;0.65;;;;;;;6.13;72.63;101307.00;5013635;28;99535;-33
2022/01/31 11:03:45;;;;;;;8.20;1.23;;;;;;;6.10;72.24;101317.84;5014194;28;96443;-33
2022/01/31 11:06:12;;;;;;;7.65;0.82;;;;;;;6.10;72.42;101326.81;5012412;28;96714;-33
2022/01/31 11:08:38;;;;;;;3.03;0.90;;;;;;;6.13;71.72;101328.53;5012104;28;100947;-33
2022/01/31 11:11:05;;;;;;;9.18;1.58;;;;;;;6.14;71.33;101323.06;5012373;28;100695;-33
2022/01/31 11:13:33;;;;;;;5.78;1.60;;;;;;;6.15;71.22;101321.28;5011851;28;96911;-33
2022/01/31 11:15:59;;;;;;;2.72;1.25;;;;;;;6.23;70.65;101339.84;5012298;28;96800;-33
2022/01/31 11:18:29;;;;;;;0.75;0.55;;;;;;;6.18;71.29;101323.00;5013714;28;98086;-33
2022/01/31 11:21:06;;;;;;;11.77;1.30;;;;;;;6.19;70.85;101327.41;5012231;28;100874;-33
2022/01/31 11:23:38;;;;;;;10.95;1.60;;;;;;;6.14;71.78;101325.75;5012270;28;96642;-33
2022/01/31 11:26:07;;;;;;;3.45;1.02;;;;;;;6.13;71.97;101361.66;5012260;28;96758;-33
2022/01/31 11:28:34;;;;;;;1.77;1.02;;;;;;;6.10;72.12;101368.94;5011752;28;100946;-33
2022/01/31 11:31:01;;;;;;;15.43;1.40;;;;;;;6.01;73.18;101378.22;5012468;28;100855;-33
2022/01/31 11:33:28;;;;;;;2.10;0.65;;;;;;;5.99;73.71;101381.91;5012162;28;96618;-33
2022/01/31 11:35:54;;;;;;;11.88;1.75;;;;;;;5.92;73.41;101367.75;5012017;28;96847;-33
2022/01/31 11:38:21;;;;;;;8.30;0.98;;;;;;;5.85;74.88;101376.97;5011281;28;100949;-33
2022/01/31 11:40:47;;;;;;;1.85;0.70;;;;;;;5.81;74.64;101394.97;5011895;28;100727;-33
2022/01/31 11:43:15;;;;;;;4.65;0.70;;;;;;;5.83;75.10;101397.63;5011967;28;96679;-33
2022/01/31 11:45:41;;;;;;;4.85;2.03;;;;;;;5.71;74.93;101399.78;5012041;28;96703;-33
2022/01/31 11:48:24;;;;;;;3.78;0.95;;;;;;;5.73;75.74;101400.63;5011745;28;100874;-33
2022/01/31 11:50:59;;;;;;;28.48;1.00;;;;;;;5.79;76.13;101404.03;5011649;28;100741;-33
2022/01/31 11:53:27;;;;;;;2.35;0.68;;;;;;;5.77;75.99;101404.09;5013383;28;96581;-33
2022/01/31 11:55:52;;;;;;;5.38;0.52;;;;;;;5.74;76.34;101423.00;5012207;28;96951;-33
2022/01/31 11:58:18;;;;;;;0.95;0.40;;;;;;;5.67;76.90;101421.44;5012506;28;104074;-33